Mobridge, SD

11:54 PM CST on December 07, 2016 (GMT -0600)
Mobridge Municipal | | Change Station
Active Advisory: Wind Chill Advisory

Elev 1716 ft 45.55 °N, 100.41 °W | Updated 2 minutes ago

Scattered Clouds
Scattered Clouds
5 °F
Feels Like -18 °F
N
25
Wind Variable Wind from NW
Gusts 34 mph

Today
High -- | Low -- °F
--% Chance of Precip.
Yesterday
High -- | Low -- °F
Precip. -- in
Pressure 30.57 in
Visibility 10.0 miles
Clouds Scattered Clouds 5500 ft
Windchill -18 °F
Dew Point -3 °F
Humidity 70%
Rainfall 0.00 in
Snow Depth Not available.
8:08 AM 4:58 PM
First Quarter, 60% visible
METAR KMBG 080552Z AUTO 32022G30KT 10SM SCT055 M15/M19 A3044 RMK AO2 PK WND 32033/0537 SLP351 60000 T11501194 11139 21150 411111150 51015
Pressure 30.57 in
Visibility 10.0 miles
Clouds Scattered Clouds 5500 ft
Windchill -18 °F
Dew Point -3 °F
Humidity 70%
Rainfall 0.00 in
Snow Depth Not available.
8:08 AM 4:58 PM
First Quarter, 60% visible
METAR KMBG 080552Z AUTO 32022G30KT 10SM SCT055 M15/M19 A3044 RMK AO2 PK WND 32033/0537 SLP351 60000 T11501194 11139 21150 411111150 51015

10-Day Weather Forecast

Almanac

Astronomy

Dec. 07, 2016 Rise Set
Actual Time
Civil Twilight
Nautical Twilight
Astronomical Twilight
Moon
Length of Visible Light
Length of Day
Tomorrow will be .
, % of the Moon is Illuminated

Today's Extremes

State Highs State Lows

Community

WunderPhotos

Upload Photos

1,956,259 photos uploaded!

WunderBlog® & News

Nearby

Air Quality

  Air Quality AQ Index Pollutant
Not available.

Snow Depth

Station Depth Elevation

Earthquake Activity

City Distance Mag. Time & Date
Minimum magnitude displayed is 2.5.

Coastal Water Temperatures

Place Temperature

Stations

Nearby Weather Stations

Station Location Temp. Windchill Dew Point Humidity Wind Precip. Elev Updated Type
                   

Watches & Warnings

Wind Chill Advisory
Issued: 8:24 PM CST Dec. 7, 2016 – National Weather Service

... Wind Chill Advisory now in effect until noon CST Thursday...

* wind chill values... expect wind chills to range from 20 below
zero to 30 below zero between 4 am and noon Thursday... with the
coldest wind chills occurring around 9 am Thursday.

* Other impacts... frost bite to exposed skin will be possible in
as little as 30 minutes.

Precautionary/preparedness actions...

A Wind Chill Advisory means that cold air and strong winds will
combine to generate low wind chills. Frost bite and hypothermia
can occur if precautions are not taken. Make sure you wear a hat
and gloves.